sensor_id;sensor_type;location;lat;lon;timestamp;temperature;humidity
19999;DHT22;10160;50.926;4.374;2023-05-14T00:00:51;14.40;99.90
19999;DHT22;10160;50.926;4.374;2023-05-14T00:03:16;14.30;99.90
19999;DHT22;10160;50.926;4.374;2023-05-14T00:05:42;14.20;99.90
19999;DHT22;10160;50.926;4.374;2023-05-14T00:08:08;14.20;99.90
19999;DHT22;10160;50.926;4.374;2023-05-14T00:10:34;14.00;99.90
19999;DHT22;10160;50.926;4.374;2023-05-14T00:12:59;14.00;99.90
19999;DHT22;10160;50.926;4.374;2023-05-14T00:15:25;14.20;99.90
19999;DHT22;10160;50.926;4.374;2023-05-14T00:17:51;14.20;99.90
19999;DHT22;10160;50.926;4.374;2023-05-14T00:20:16;14.00;99.90
19999;DHT22;10160;50.926;4.374;2023-05-14T00:22:42;14.10;99.90
19999;DHT22;10160;50.926;4.374;2023-05-14T00:25:08;14.10;99.90
19999;DHT22;10160;50.926;4.374;2023-05-14T00:27:34;14.10;99.90
19999;DHT22;10160;50.926;4.374;2023-05-14T00:30:03;13.90;99.90
19999;DHT22;10160;50.926;4.374;2023-05-14T00:32:30;13.70;99.90
19999;DHT22;10160;50.926;4.374;2023-05-14T00:34:56;13.80;99.90
19999;DHT22;10160;50.926;4.374;2023-05-14T00:37:22;13.80;99.90
19999;DHT22;10160;50.926;4.374;2023-05-14T00:39:47;14.10;99.90
19999;DHT22;10160;50.926;4.374;2023-05-14T00:42:13;14.10;99.90
19999;DHT22;10160;50.926;4.374;2023-05-14T00:44:39;14.10;99.90
19999;DHT22;10160;50.926;4.374;2023-05-14T00:47:04;14.00;99.90
19999;DHT22;10160;50.926;4.374;2023-05-14T00:49:31;14.00;99.90
19999;DHT22;10160;50.926;4.374;2023-05-14T00:51:56;14.10;99.90
19999;DHT22;10160;50.926;4.374;2023-05-14T00:54:23;13.90;99.90
19999;DHT22;10160;50.926;4.374;2023-05-14T00:56:49;13.90;99.90
19999;DHT22;10160;50.926;4.374;2023-05-14T00:59:15;14.10;99.90
19999;DHT22;10160;50.926;4.374;2023-05-14T01:01:41;14.10;99.90
19999;DHT22;10160;50.926;4.374;2023-05-14T01:04:07;14.30;99.90
19999;DHT22;10160;50.926;4.374;2023-05-14T01:09:58;14.10;99.90
19999;DHT22;10160;50.926;4.374;2023-05-14T01:17:28;14.30;99.90
19999;DHT22;10160;50.926;4.374;2023-05-14T01:19:57;14.20;99.90
19999;DHT22;10160;50.926;4.374;2023-05-14T01:22:24;14.20;99.90
19999;DHT22;10160;50.926;4.374;2023-05-14T01:24:50;14.30;99.90
19999;DHT22;10160;50.926;4.374;2023-05-14T01:27:41;14.20;99.90
19999;DHT22;10160;50.926;4.374;2023-05-14T01:30:36;14.20;99.90
19999;DHT22;10160;50.926;4.374;2023-05-14T01:33:09;14.30;99.90
19999;DHT22;10160;50.926;4.374;2023-05-14T01:35:35;14.10;99.90
19999;DHT22;10160;50.926;4.374;2023-05-14T01:38:04;14.00;99.90
19999;DHT22;10160;50.926;4.374;2023-05-14T01:40:31;14.00;99.90
19999;DHT22;10160;50.926;4.374;2023-05-14T01:42:59;13.90;99.90
19999;DHT22;10160;50.926;4.374;2023-05-14T01:45:25;14.00;99.90
19999;DHT22;10160;50.926;4.374;2023-05-14T01:47:52;13.90;99.90
19999;DHT22;10160;50.926;4.374;2023-05-14T01:50:18;14.10;99.90
19999;DHT22;10160;50.926;4.374;2023-05-14T01:52:43;14.00;99.90
19999;DHT22;10160;50.926;4.374;2023-05-14T01:55:09;14.00;99.90
19999;DHT22;10160;50.926;4.374;2023-05-14T01:57:35;14.10;99.90
19999;DHT22;10160;50.926;4.374;2023-05-14T02:00:01;14.10;99.90
19999;DHT22;10160;50.926;4.374;2023-05-14T02:02:28;14.10;99.90
19999;DHT22;10160;50.926;4.374;2023-05-14T02:04:54;14.20;99.90
19999;DHT22;10160;50.926;4.374;2023-05-14T02:07:19;14.20;99.90
19999;DHT22;10160;50.926;4.374;2023-05-14T02:09:45;14.30;99.90
19999;DHT22;10160;50.926;4.374;2023-05-14T02:12:11;14.40;99.90
19999;DHT22;10160;50.926;4.374;2023-05-14T02:14:36;14.20;99.90
19999;DHT22;10160;50.926;4.374;2023-05-14T02:17:02;13.90;99.90
19999;DHT22;10160;50.926;4.374;2023-05-14T02:19:28;13.90;99.90
19999;DHT22;10160;50.926;4.374;2023-05-14T02:21:54;14.00;99.90
19999;DHT22;10160;50.926;4.374;2023-05-14T02:24:20;14.00;99.90
19999;DHT22;10160;50.926;4.374;2023-05-14T02:26:46;14.00;99.90
19999;DHT22;10160;50.926;4.374;2023-05-14T02:29:12;13.90;99.90
19999;DHT22;10160;50.926;4.374;2023-05-14T02:31:37;14.00;99.90
19999;DHT22;10160;50.926;4.374;2023-05-14T02:34:04;14.10;99.90
19999;DHT22;10160;50.926;4.374;2023-05-14T02:36:31;13.80;99.90
19999;DHT22;10160;50.926;4.374;2023-05-14T02:38:58;14.00;99.90
19999;DHT22;10160;50.926;4.374;2023-05-14T02:41:24;14.00;99.90
19999;DHT22;10160;50.926;4.374;2023-05-14T02:43:50;14.20;99.90
19999;DHT22;10160;50.926;4.374;2023-05-14T02:46:16;14.10;99.90
19999;DHT22;10160;50.926;4.374;2023-05-14T02:48:42;14.20;99.90
19999;DHT22;10160;50.926;4.374;2023-05-14T02:51:07;14.30;99.90
19999;DHT22;10160;50.926;4.374;2023-05-14T02:53:33;14.30;99.90
19999;DHT22;10160;50.926;4.374;2023-05-14T02:55:59;14.30;99.90
19999;DHT22;10160;50.926;4.374;2023-05-14T02:58:25;14.10;99.90
19999;DHT22;10160;50.926;4.374;2023-05-14T03:00:50;14.20;99.90
19999;DHT22;10160;50.926;4.374;2023-05-14T03:03:18;14.20;99.90
19999;DHT22;10160;50.926;4.374;2023-05-14T03:05:44;14.20;99.90
19999;DHT22;10160;50.926;4.374;2023-05-14T03:08:10;14.20;99.90
19999;DHT22;10160;50.926;4.374;2023-05-14T03:10:36;14.20;99.90
19999;DHT22;10160;50.926;4.374;2023-05-14T03:13:01;14.00;99.90
19999;DHT22;10160;50.926;4.374;2023-05-14T03:15:27;13.90;99.90
19999;DHT22;10160;50.926;4.374;2023-05-14T03:17:53;14.00;99.90
19999;DHT22;10160;50.926;4.374;2023-05-14T03:20:19;14.10;99.90
19999;DHT22;10160;50.926;4.374;2023-05-14T03:22:45;14.10;99.90
19999;DHT22;10160;50.926;4.374;2023-05-14T03:25:10;14.10;99.90
19999;DHT22;10160;50.926;4.374;2023-05-14T03:27:36;13.90;99.90
19999;DHT22;10160;50.926;4.374;2023-05-14T03:30:02;14.00;99.90
19999;DHT22;10160;50.926;4.374;2023-05-14T03:32:29;14.10;99.90
19999;DHT22;10160;50.926;4.374;2023-05-14T03:34:54;13.90;99.90
19999;DHT22;10160;50.926;4.374;2023-05-14T03:37:20;14.00;99.90
19999;DHT22;10160;50.926;4.374;2023-05-14T03:39:46;14.20;99.90
19999;DHT22;10160;50.926;4.374;2023-05-14T03:42:12;14.20;99.90
19999;DHT22;10160;50.926;4.374;2023-05-14T03:44:37;14.10;99.90
19999;DHT22;10160;50.926;4.374;2023-05-14T03:47:03;14.00;99.90
19999;DHT22;10160;50.926;4.374;2023-05-14T03:49:29;14.00;99.90
19999;DHT22;10160;50.926;4.374;2023-05-14T03:51:55;14.00;99.90
19999;DHT22;10160;50.926;4.374;2023-05-14T03:54:21;13.90;99.90
19999;DHT22;10160;50.926;4.374;2023-05-14T03:56:47;13.80;99.90
19999;DHT22;10160;50.926;4.374;2023-05-14T03:59:13;13.90;99.90
19999;DHT22;10160;50.926;4.374;2023-05-14T04:01:38;13.80;99.90
19999;DHT22;10160;50.926;4.374;2023-05-14T04:04:04;13.80;99.90
19999;DHT22;10160;50.926;4.374;2023-05-14T04:06:31;13.80;99.90
19999;DHT22;10160;50.926;4.374;2023-05-14T04:08:57;13.90;99.90
19999;DHT22;10160;50.926;4.374;2023-05-14T04:11:22;13.70;99.90
19999;DHT22;10160;50.926;4.374;2023-05-14T04:13:48;13.70;99.90
19999;DHT22;10160;50.926;4.374;2023-05-14T04:16:14;13.80;99.90
19999;DHT22;10160;50.926;4.374;2023-05-14T04:18:39;13.90;99.90
19999;DHT22;10160;50.926;4.374;2023-05-14T04:21:05;13.80;99.90
19999;DHT22;10160;50.926;4.374;2023-05-14T04:23:31;13.80;99.90
19999;DHT22;10160;50.926;4.374;2023-05-14T04:25:57;13.90;99.90
19999;DHT22;10160;50.926;4.374;2023-05-14T04:28:23;14.00;99.90
19999;DHT22;10160;50.926;4.374;2023-05-14T04:30:49;14.00;99.90
19999;DHT22;10160;50.926;4.374;2023-05-14T04:33:15;13.90;99.90
19999;DHT22;10160;50.926;4.374;2023-05-14T04:35:40;14.00;99.90
19999;DHT22;10160;50.926;4.374;2023-05-14T04:38:06;14.20;99.90
19999;DHT22;10160;50.926;4.374;2023-05-14T04:40:32;14.30;99.90
19999;DHT22;10160;50.926;4.374;2023-05-14T04:42:57;14.40;99.90
19999;DHT22;10160;50.926;4.374;2023-05-14T04:45:23;14.40;99.90
19999;DHT22;10160;50.926;4.374;2023-05-14T04:47:48;14.40;99.90
19999;DHT22;10160;50.926;4.374;2023-05-14T04:50:14;14.50;99.90
19999;DHT22;10160;50.926;4.374;2023-05-14T04:52:40;14.40;99.90
19999;DHT22;10160;50.926;4.374;2023-05-14T04:55:06;14.00;99.90
19999;DHT22;10160;50.926;4.374;2023-05-14T04:57:32;14.00;99.90
19999;DHT22;10160;50.926;4.374;2023-05-14T04:59:58;14.10;99.90
19999;DHT22;10160;50.926;4.374;2023-05-14T05:02:24;14.00;99.90
19999;DHT22;10160;50.926;4.374;2023-05-14T05:04:50;13.70;99.90
19999;DHT22;10160;50.926;4.374;2023-05-14T05:07:15;13.90;99.90
19999;DHT22;10160;50.926;4.374;2023-05-14T05:09:42;13.90;99.90
19999;DHT22;10160;50.926;4.374;2023-05-14T05:12:08;13.80;99.90
19999;DHT22;10160;50.926;4.374;2023-05-14T05:14:34;13.70;99.90
19999;DHT22;10160;50.926;4.374;2023-05-14T05:17:00;14.00;99.90
19999;DHT22;10160;50.926;4.374;2023-05-14T05:19:25;14.20;99.90
19999;DHT22;10160;50.926;4.374;2023-05-14T05:21:51;14.10;99.90
19999;DHT22;10160;50.926;4.374;2023-05-14T05:24:17;14.30;99.90
19999;DHT22;10160;50.926;4.374;2023-05-14T05:26:42;14.20;99.90
19999;DHT22;10160;50.926;4.374;2023-05-14T05:29:08;14.10;99.90
19999;DHT22;10160;50.926;4.374;2023-05-14T05:31:34;14.00;99.90
19999;DHT22;10160;50.926;4.374;2023-05-14T05:34:00;13.80;99.90
19999;DHT22;10160;50.926;4.374;2023-05-14T05:36:25;13.60;99.90
19999;DHT22;10160;50.926;4.374;2023-05-14T05:38:52;13.90;99.90
19999;DHT22;10160;50.926;4.374;2023-05-14T05:41:17;14.10;99.90
19999;DHT22;10160;50.926;4.374;2023-05-14T05:43:43;14.20;99.90
19999;DHT22;10160;50.926;4.374;2023-05-14T05:46:09;14.20;99.90
19999;DHT22;10160;50.926;4.374;2023-05-14T05:48:34;14.20;99.90
19999;DHT22;10160;50.926;4.374;2023-05-14T05:51:00;14.10;99.90
19999;DHT22;10160;50.926;4.374;2023-05-14T05:53:26;14.00;99.90
19999;DHT22;10160;50.926;4.374;2023-05-14T05:55:51;13.80;99.90
19999;DHT22;10160;50.926;4.374;2023-05-14T05:58:18;13.90;99.90
19999;DHT22;10160;50.926;4.374;2023-05-14T06:00:44;14.00;99.90
19999;DHT22;10160;50.926;4.374;2023-05-14T06:03:10;14.20;99.90
19999;DHT22;10160;50.926;4.374;2023-05-14T06:05:36;14.20;99.90
19999;DHT22;10160;50.926;4.374;2023-05-14T06:08:02;14.30;99.90
19999;DHT22;10160;50.926;4.374;2023-05-14T06:10:27;14.30;99.90
19999;DHT22;10160;50.926;4.374;2023-05-14T06:12:53;14.10;99.90
19999;DHT22;10160;50.926;4.374;2023-05-14T06:15:19;14.20;99.90
19999;DHT22;10160;50.926;4.374;2023-05-14T06:17:45;14.40;99.90
19999;DHT22;10160;50.926;4.374;2023-05-14T06:20:11;14.40;99.90
19999;DHT22;10160;50.926;4.374;2023-05-14T06:22:37;14.30;99.90
19999;DHT22;10160;50.926;4.374;2023-05-14T06:25:03;14.30;99.90
19999;DHT22;10160;50.926;4.374;2023-05-14T06:27:29;14.40;99.90
19999;DHT22;10160;50.926;4.374;2023-05-14T06:29:54;14.40;99.90
19999;DHT22;10160;50.926;4.374;2023-05-14T06:32:20;14.40;99.90
19999;DHT22;10160;50.926;4.374;2023-05-14T06:34:46;14.40;99.90
19999;DHT22;10160;50.926;4.374;2023-05-14T06:37:12;14.40;99.90
19999;DHT22;10160;50.926;4.374;2023-05-14T06:39:39;14.40;99.90
19999;DHT22;10160;50.926;4.374;2023-05-14T06:42:10;14.60;99.90
19999;DHT22;10160;50.926;4.374;2023-05-14T06:44:36;14.60;99.90
19999;DHT22;10160;50.926;4.374;2023-05-14T06:47:02;14.60;99.90
19999;DHT22;10160;50.926;4.374;2023-05-14T06:49:27;14.90;99.90
19999;DHT22;10160;50.926;4.374;2023-05-14T06:51:53;14.50;99.90
19999;DHT22;10160;50.926;4.374;2023-05-14T06:54:19;14.50;99.90
19999;DHT22;10160;50.926;4.374;2023-05-14T06:56:45;14.30;99.90
19999;DHT22;10160;50.926;4.374;2023-05-14T06:59:11;14.60;99.90
19999;DHT22;10160;50.926;4.374;2023-05-14T07:01:37;14.50;99.90
19999;DHT22;10160;50.926;4.374;2023-05-14T07:04:02;14.40;99.90
19999;DHT22;10160;50.926;4.374;2023-05-14T07:06:28;14.40;99.90
19999;DHT22;10160;50.926;4.374;2023-05-14T07:08:54;14.50;99.90
19999;DHT22;10160;50.926;4.374;2023-05-14T07:11:20;14.50;99.90
19999;DHT22;10160;50.926;4.374;2023-05-14T07:13:46;14.30;99.90
19999;DHT22;10160;50.926;4.374;2023-05-14T07:16:12;14.30;99.90
19999;DHT22;10160;50.926;4.374;2023-05-14T07:18:38;14.50;99.90
19999;DHT22;10160;50.926;4.374;2023-05-14T07:21:03;14.60;99.90
19999;DHT22;10160;50.926;4.374;2023-05-14T07:23:31;14.80;99.90
19999;DHT22;10160;50.926;4.374;2023-05-14T07:25:57;14.70;99.90
19999;DHT22;10160;50.926;4.374;2023-05-14T07:28:23;14.80;99.90
19999;DHT22;10160;50.926;4.374;2023-05-14T07:30:49;14.70;99.90
19999;DHT22;10160;50.926;4.374;2023-05-14T07:33:14;14.90;99.90
19999;DHT22;10160;50.926;4.374;2023-05-14T07:35:40;14.90;99.90
19999;DHT22;10160;50.926;4.374;2023-05-14T07:38:06;15.20;99.90
19999;DHT22;10160;50.926;4.374;2023-05-14T07:40:32;15.20;99.90
19999;DHT22;10160;50.926;4.374;2023-05-14T07:42:58;15.00;99.90
19999;DHT22;10160;50.926;4.374;2023-05-14T07:45:23;15.10;99.90
19999;DHT22;10160;50.926;4.374;2023-05-14T07:47:49;15.10;99.90
19999;DHT22;10160;50.926;4.374;2023-05-14T07:50:17;15.20;99.90
19999;DHT22;10160;50.926;4.374;2023-05-14T07:52:43;15.20;99.90
19999;DHT22;10160;50.926;4.374;2023-05-14T07:55:09;15.20;99.90
19999;DHT22;10160;50.926;4.374;2023-05-14T07:57:35;15.00;99.90
19999;DHT22;10160;50.926;4.374;2023-05-14T08:00:02;14.90;99.90
19999;DHT22;10160;50.926;4.374;2023-05-14T08:02:28;15.00;99.90
19999;DHT22;10160;50.926;4.374;2023-05-14T08:04:54;15.20;99.90
19999;DHT22;10160;50.926;4.374;2023-05-14T08:07:20;15.30;99.90
19999;DHT22;10160;50.926;4.374;2023-05-14T08:09:46;15.40;99.90
19999;DHT22;10160;50.926;4.374;2023-05-14T08:12:11;15.40;99.90
19999;DHT22;10160;50.926;4.374;2023-05-14T08:14:37;15.30;99.90
19999;DHT22;10160;50.926;4.374;2023-05-14T08:17:03;15.60;99.90
19999;DHT22;10160;50.926;4.374;2023-05-14T08:19:29;15.80;99.90
19999;DHT22;10160;50.926;4.374;2023-05-14T08:21:55;15.80;99.90
19999;DHT22;10160;50.926;4.374;2023-05-14T08:24:20;15.90;99.90
19999;DHT22;10160;50.926;4.374;2023-05-14T08:26:46;15.90;99.90
19999;DHT22;10160;50.926;4.374;2023-05-14T08:29:12;15.80;99.90
19999;DHT22;10160;50.926;4.374;2023-05-14T08:31:37;15.90;99.90
19999;DHT22;10160;50.926;4.374;2023-05-14T08:34:03;16.20;99.90
19999;DHT22;10160;50.926;4.374;2023-05-14T08:36:29;16.20;99.90
19999;DHT22;10160;50.926;4.374;2023-05-14T08:38:54;16.10;99.90
19999;DHT22;10160;50.926;4.374;2023-05-14T08:41:20;16.40;99.90
19999;DHT22;10160;50.926;4.374;2023-05-14T08:46:22;16.30;99.90
19999;DHT22;10160;50.926;4.374;2023-05-14T08:48:55;16.50;99.90
19999;DHT22;10160;50.926;4.374;2023-05-14T08:51:23;16.40;99.90
19999;DHT22;10160;50.926;4.374;2023-05-14T08:53:49;16.00;99.90
19999;DHT22;10160;50.926;4.374;2023-05-14T08:56:17;16.20;99.90
19999;DHT22;10160;50.926;4.374;2023-05-14T08:58:43;16.30;99.90
19999;DHT22;10160;50.926;4.374;2023-05-14T09:01:09;16.10;99.90
19999;DHT22;10160;50.926;4.374;2023-05-14T09:03:36;15.90;99.90
19999;DHT22;10160;50.926;4.374;2023-05-14T09:06:03;16.00;99.90
19999;DHT22;10160;50.926;4.374;2023-05-14T09:08:28;16.30;99.90
19999;DHT22;10160;50.926;4.374;2023-05-14T09:10:54;16.40;99.90
19999;DHT22;10160;50.926;4.374;2023-05-14T09:13:20;16.60;99.90
19999;DHT22;10160;50.926;4.374;2023-05-14T09:15:47;16.60;99.90
19999;DHT22;10160;50.926;4.374;2023-05-14T09:18:14;16.80;99.90
19999;DHT22;10160;50.926;4.374;2023-05-14T09:20:40;17.10;99.90
19999;DHT22;10160;50.926;4.374;2023-05-14T09:23:06;17.00;99.90
19999;DHT22;10160;50.926;4.374;2023-05-14T09:25:32;16.90;99.90
19999;DHT22;10160;50.926;4.374;2023-05-14T09:27:58;17.10;99.90
19999;DHT22;10160;50.926;4.374;2023-05-14T09:30:24;17.60;99.90
19999;DHT22;10160;50.926;4.374;2023-05-14T09:32:53;17.50;99.90
19999;DHT22;10160;50.926;4.374;2023-05-14T09:35:22;17.60;99.90
19999;DHT22;10160;50.926;4.374;2023-05-14T09:37:49;17.80;99.90
19999;DHT22;10160;50.926;4.374;2023-05-14T09:40:16;17.90;99.90
19999;DHT22;10160;50.926;4.374;2023-05-14T09:42:42;17.80;99.90
19999;DHT22;10160;50.926;4.374;2023-05-14T09:45:09;18.10;99.90
19999;DHT22;10160;50.926;4.374;2023-05-14T09:47:36;18.00;99.90
19999;DHT22;10160;50.926;4.374;2023-05-14T09:50:02;17.90;99.90
19999;DHT22;10160;50.926;4.374;2023-05-14T09:52:28;18.30;99.90
19999;DHT22;10160;50.926;4.374;2023-05-14T09:54:54;18.40;99.90
19999;DHT22;10160;50.926;4.374;2023-05-14T09:57:20;18.70;99.90
19999;DHT22;10160;50.926;4.374;2023-05-14T09:59:46;18.30;99.90
19999;DHT22;10160;50.926;4.374;2023-05-14T10:02:23;18.70;99.90
19999;DHT22;10160;50.926;4.374;2023-05-14T10:04:53;18.60;99.90
19999;DHT22;10160;50.926;4.374;2023-05-14T10:07:26;18.60;99.90
19999;DHT22;10160;50.926;4.374;2023-05-14T10:09:57;18.50;99.90
19999;DHT22;10160;50.926;4.374;2023-05-14T10:12:27;18.40;99.90
19999;DHT22;10160;50.926;4.374;2023-05-14T10:14:56;18.90;99.90
19999;DHT22;10160;50.926;4.374;2023-05-14T10:17:28;18.80;99.90
19999;DHT22;10160;50.926;4.374;2023-05-14T10:19:56;18.90;99.90
19999;DHT22;10160;50.926;4.374;2023-05-14T10:22:26;18.90;99.90
19999;DHT22;10160;50.926;4.374;2023-05-14T10:24:55;18.90;99.90
19999;DHT22;10160;50.926;4.374;2023-05-14T10:27:22;19.10;99.90
19999;DHT22;10160;50.926;4.374;2023-05-14T10:29:53;19.40;99.90
19999;DHT22;10160;50.926;4.374;2023-05-14T10:32:22;19.10;99.90
19999;DHT22;10160;50.926;4.374;2023-05-14T10:34:49;19.50;99.90
19999;DHT22;10160;50.926;4.374;2023-05-14T10:37:21;19.40;99.90
19999;DHT22;10160;50.926;4.374;2023-05-14T10:39:56;19.30;99.90
19999;DHT22;10160;50.926;4.374;2023-05-14T10:42:27;19.40;99.90
19999;DHT22;10160;50.926;4.374;2023-05-14T10:45:04;19.40;99.90
19999;DHT22;10160;50.926;4.374;2023-05-14T10:47:32;19.70;99.90
19999;DHT22;10160;50.926;4.374;2023-05-14T10:50:00;20.00;99.90
19999;DHT22;10160;50.926;4.374;2023-05-14T10:52:26;19.90;99.90
19999;DHT22;10160;50.926;4.374;2023-05-14T10:54:59;20.20;99.90
19999;DHT22;10160;50.926;4.374;2023-05-14T10:57:30;20.20;99.90
19999;DHT22;10160;50.926;4.374;2023-05-14T10:59:59;20.40;99.90
19999;DHT22;10160;50.926;4.374;2023-05-14T11:02:36;21.00;99.90
19999;DHT22;10160;50.926;4.374;2023-05-14T11:05:10;21.30;99.90
19999;DHT22;10160;50.926;4.374;2023-05-14T11:07:40;21.20;99.90
19999;DHT22;10160;50.926;4.374;2023-05-14T11:10:11;21.10;99.90
19999;DHT22;10160;50.926;4.374;2023-05-14T11:12:44;21.00;99.90
19999;DHT22;10160;50.926;4.374;2023-05-14T11:15:11;21.30;99.90
19999;DHT22;10160;50.926;4.374;2023-05-14T11:17:40;21.40;99.90
19999;DHT22;10160;50.926;4.374;2023-05-14T11:20:06;21.40;99.90
19999;DHT22;10160;50.926;4.374;2023-05-14T11:22:37;21.40;99.90
19999;DHT22;10160;50.926;4.374;2023-05-14T11:25:04;21.20;99.90
19999;DHT22;10160;50.926;4.374;2023-05-14T11:27:33;21.40;99.90
19999;DHT22;10160;50.926;4.374;2023-05-14T11:29:59;21.80;99.90
19999;DHT22;10160;50.926;4.374;2023-05-14T11:32:25;22.00;99.90
19999;DHT22;10160;50.926;4.374;2023-05-14T11:34:51;22.20;99.90
19999;DHT22;10160;50.926;4.374;2023-05-14T11:37:17;22.40;99.90
19999;DHT22;10160;50.926;4.374;2023-05-14T11:39:47;22.80;99.90
19999;DHT22;10160;50.926;4.374;2023-05-14T11:42:14;22.90;99.90
19999;DHT22;10160;50.926;4.374;2023-05-14T11:44:42;22.80;99.90
19999;DHT22;10160;50.926;4.374;2023-05-14T11:47:09;23.00;99.90
19999;DHT22;10160;50.926;4.374;2023-05-14T11:49:35;23.10;99.90
19999;DHT22;10160;50.926;4.374;2023-05-14T11:52:04;23.20;99.90
19999;DHT22;10160;50.926;4.374;2023-05-14T11:54:31;23.00;99.90
19999;DHT22;10160;50.926;4.374;2023-05-14T11:56:58;23.10;99.90
19999;DHT22;10160;50.926;4.374;2023-05-14T11:59:28;23.70;99.90
19999;DHT22;10160;50.926;4.374;2023-05-14T12:01:56;23.40;99.90
19999;DHT22;10160;50.926;4.374;2023-05-14T12:04:21;23.90;99.90
19999;DHT22;10160;50.926;4.374;2023-05-14T12:06:51;23.70;99.90
19999;DHT22;10160;50.926;4.374;2023-05-14T12:09:21;23.70;99.90
19999;DHT22;10160;50.926;4.374;2023-05-14T12:11:48;23.50;99.90
19999;DHT22;10160;50.926;4.374;2023-05-14T12:14:22;23.70;99.90
19999;DHT22;10160;50.926;4.374;2023-05-14T12:16:50;24.00;99.90
19999;DHT22;10160;50.926;4.374;2023-05-14T12:19:17;23.90;99.90
19999;DHT22;10160;50.926;4.374;2023-05-14T12:21:45;24.30;99.90
19999;DHT22;10160;50.926;4.374;2023-05-14T12:24:14;24.60;99.90
19999;DHT22;10160;50.926;4.374;2023-05-14T12:26:44;24.30;99.90
19999;DHT22;10160;50.926;4.374;2023-05-14T12:29:12;24.60;99.90
19999;DHT22;10160;50.926;4.374;2023-05-14T12:31:48;24.70;99.90
19999;DHT22;10160;50.926;4.374;2023-05-14T12:34:14;24.80;99.90
19999;DHT22;10160;50.926;4.374;2023-05-14T12:36:41;24.60;99.90
19999;DHT22;10160;50.926;4.374;2023-05-14T12:39:07;24.60;99.90
19999;DHT22;10160;50.926;4.374;2023-05-14T12:41:34;24.80;99.90
19999;DHT22;10160;50.926;4.374;2023-05-14T12:44:02;24.70;99.90
19999;DHT22;10160;50.926;4.374;2023-05-14T12:46:28;25.00;99.90
19999;DHT22;10160;50.926;4.374;2023-05-14T12:48:54;25.50;99.90
19999;DHT22;10160;50.926;4.374;2023-05-14T12:51:20;25.60;99.90
19999;DHT22;10160;50.926;4.374;2023-05-14T12:53:46;25.50;99.90
19999;DHT22;10160;50.926;4.374;2023-05-14T12:56:12;24.70;99.90
19999;DHT22;10160;50.926;4.374;2023-05-14T12:58:38;25.00;99.90
19999;DHT22;10160;50.926;4.374;2023-05-14T13:01:04;25.00;99.90
19999;DHT22;10160;50.926;4.374;2023-05-14T13:03:30;24.80;99.90
19999;DHT22;10160;50.926;4.374;2023-05-14T13:05:56;25.30;99.90
19999;DHT22;10160;50.926;4.374;2023-05-14T13:08:22;25.00;99.90
19999;DHT22;10160;50.926;4.374;2023-05-14T13:10:54;24.40;99.90
19999;DHT22;10160;50.926;4.374;2023-05-14T13:13:20;24.20;99.90
19999;DHT22;10160;50.926;4.374;2023-05-14T13:15:47;24.40;99.90
19999;DHT22;10160;50.926;4.374;2023-05-14T13:18:13;24.60;99.90
19999;DHT22;10160;50.926;4.374;2023-05-14T13:20:39;24.40;99.90
19999;DHT22;10160;50.926;4.374;2023-05-14T13:23:05;24.90;99.90
19999;DHT22;10160;50.926;4.374;2023-05-14T13:25:31;25.40;99.90
19999;DHT22;10160;50.926;4.374;2023-05-14T13:27:57;25.20;99.90
19999;DHT22;10160;50.926;4.374;2023-05-14T13:30:22;25.00;99.90
19999;DHT22;10160;50.926;4.374;2023-05-14T13:32:48;25.00;99.90
19999;DHT22;10160;50.926;4.374;2023-05-14T13:35:14;24.90;99.90
19999;DHT22;10160;50.926;4.374;2023-05-14T13:37:41;24.60;99.90
19999;DHT22;10160;50.926;4.374;2023-05-14T13:40:07;24.80;99.90
19999;DHT22;10160;50.926;4.374;2023-05-14T13:42:34;24.80;99.90
19999;DHT22;10160;50.926;4.374;2023-05-14T13:45:00;24.80;99.90
19999;DHT22;10160;50.926;4.374;2023-05-14T13:47:26;24.80;99.90
19999;DHT22;10160;50.926;4.374;2023-05-14T13:49:52;25.00;99.90
19999;DHT22;10160;50.926;4.374;2023-05-14T13:52:18;24.90;99.90
19999;DHT22;10160;50.926;4.374;2023-05-14T13:54:43;25.20;99.90
19999;DHT22;10160;50.926;4.374;2023-05-14T13:57:09;25.40;99.90
19999;DHT22;10160;50.926;4.374;2023-05-14T13:59:35;24.80;99.90
19999;DHT22;10160;50.926;4.374;2023-05-14T14:02:01;24.70;99.90
19999;DHT22;10160;50.926;4.374;2023-05-14T14:04:27;24.40;99.90
19999;DHT22;10160;50.926;4.374;2023-05-14T14:06:56;24.50;99.90
19999;DHT22;10160;50.926;4.374;2023-05-14T14:09:22;24.50;99.90
19999;DHT22;10160;50.926;4.374;2023-05-14T14:11:48;24.50;99.90
19999;DHT22;10160;50.926;4.374;2023-05-14T14:14:14;25.00;99.90
19999;DHT22;10160;50.926;4.374;2023-05-14T14:16:40;25.40;99.90
19999;DHT22;10160;50.926;4.374;2023-05-14T14:19:06;25.30;99.90
19999;DHT22;10160;50.926;4.374;2023-05-14T14:21:32;25.00;99.90
19999;DHT22;10160;50.926;4.374;2023-05-14T14:23:58;24.60;99.90
19999;DHT22;10160;50.926;4.374;2023-05-14T14:26:24;24.50;99.90
